Time;durP1;ratioP1;P1;durP2;ratioP2;P2;SDS_P1;SDS_P2;PMS_P1;PMS_P2;Temp;Humidity;BMP_temperature;BMP_pressure;BME280_temperature;BME280_humidity;BME280_pressure;Samples;Min_cycle;Max_cycle;Signal;HPM_P1;HPM_P2
2022/05/06 00:00:07;;;;;;;12.88;9.75;;;;;;;12.17;67.11;95492.13;5081608;28;20184;-67
2022/05/06 00:02:33;;;;;;;10.10;8.93;;;;;;;12.13;67.13;95491.19;5099056;28;20203;-67
2022/05/06 00:05:02;;;;;;;10.00;9.10;;;;;;;12.05;66.86;95492.94;5099013;28;20202;-67
2022/05/06 00:07:29;;;;;;;11.18;10.05;;;;;;;12.02;67.06;95497.25;5081265;28;20201;-67
2022/05/06 00:09:55;;;;;;;10.50;9.50;;;;;;;11.98;67.35;95492.75;5081025;28;20238;-68
2022/05/06 00:12:23;;;;;;;11.75;9.45;;;;;;;11.98;67.38;95488.03;5081253;28;20189;-67
2022/05/06 00:14:50;;;;;;;10.60;9.63;;;;;;;11.95;67.39;95494.28;5081217;28;20516;-67
2022/05/06 00:17:16;;;;;;;10.02;9.07;;;;;;;11.94;67.75;95498.16;5098127;28;20192;-67
2022/05/06 00:19:43;;;;;;;9.63;8.77;;;;;;;11.95;67.77;95507.28;5098751;28;20192;-68
2022/05/06 00:22:12;;;;;;;10.25;9.25;;;;;;;11.94;68.13;95506.47;5082224;28;20204;-69
2022/05/06 00:39:56;;;;;;;10.00;9.10;;;;;;;11.95;67.69;95504.53;5135328;27;20562;-68
2022/05/06 00:42:23;;;;;;;10.07;9.20;;;;;;;11.93;67.68;95504.88;5135552;28;20183;-68
2022/05/06 00:44:50;;;;;;;9.75;8.93;;;;;;;11.89;68.04;95514.22;5134954;28;20209;-68
2022/05/06 00:47:20;;;;;;;10.63;9.52;;;;;;;11.84;67.59;95512.50;5134958;28;20190;-68
2022/05/06 00:49:50;;;;;;;10.07;9.13;;;;;;;11.79;67.90;95509.94;5131283;27;20233;-68
2022/05/06 00:52:17;;;;;;;10.27;9.38;;;;;;;11.77;68.03;95512.28;5134627;28;20191;-70
2022/05/06 00:54:45;;;;;;;11.18;9.38;;;;;;;11.78;67.77;95519.41;5134880;28;20206;-69
2022/05/06 00:57:13;;;;;;;10.13;9.23;;;;;;;11.75;68.11;95517.31;5135317;28;20198;-69
2022/05/06 01:02:22;;;;;;;9.00;8.20;;;;;;;11.75;67.93;95514.56;5134843;28;20276;-69
2022/05/06 01:04:51;;;;;;;10.07;9.17;;;;;;;11.76;67.93;95517.00;5134261;28;20195;-69
2022/05/06 01:07:19;;;;;;;9.65;8.75;;;;;;;11.75;67.71;95514.56;5134792;28;20191;-69
2022/05/06 01:09:46;;;;;;;9.88;8.98;;;;;;;11.73;67.62;95520.44;5134548;28;20521;-69
2022/05/06 01:12:14;;;;;;;9.63;8.32;;;;;;;11.69;67.35;95516.78;5134405;28;20306;-69
2022/05/06 01:14:41;;;;;;;9.57;8.60;;;;;;;11.67;67.71;95518.28;5135812;28;20190;-69
2022/05/06 01:17:09;;;;;;;9.10;8.30;;;;;;;11.65;68.27;95515.84;5135272;28;20196;-69
2022/05/06 01:19:36;;;;;;;9.30;8.50;;;;;;;11.67;67.88;95512.75;5135852;28;20203;-69
2022/05/06 01:22:04;;;;;;;9.10;8.40;;;;;;;11.64;67.90;95517.00;5134016;28;20203;-68
2022/05/06 01:24:32;;;;;;;9.40;8.52;;;;;;;11.63;68.13;95518.16;5135448;28;20183;-69
2022/05/06 01:27:04;;;;;;;9.05;8.25;;;;;;;11.61;67.51;95509.41;5135583;28;20191;-69
2022/05/06 01:29:32;;;;;;;9.18;8.38;;;;;;;11.57;67.71;95511.25;5136053;28;20199;-69
2022/05/06 01:31:59;;;;;;;8.90;8.20;;;;;;;11.54;67.93;95510.00;5134591;28;20228;-69
2022/05/06 01:34:33;;;;;;;8.93;8.13;;;;;;;11.52;67.87;95506.78;5135477;28;20197;-69
2022/05/06 01:37:03;;;;;;;9.53;8.53;;;;;;;11.53;67.96;95511.16;5135169;28;20611;-70
2022/05/06 01:39:35;;;;;;;8.70;7.80;;;;;;;11.52;68.09;95504.03;5135451;28;20246;-70
2022/05/06 01:42:05;;;;;;;8.57;7.90;;;;;;;11.53;67.99;95511.16;5133776;28;20286;-68
2022/05/06 01:44:38;;;;;;;9.47;8.50;;;;;;;11.53;67.88;95497.34;5134998;28;20176;-68
2022/05/06 01:47:08;;;;;;;9.40;8.50;;;;;;;11.53;67.84;95502.88;5135082;28;20204;-70
2022/05/06 01:49:36;;;;;;;9.70;8.70;;;;;;;11.48;68.12;95507.84;5130288;28;20200;-70
2022/05/06 01:52:03;;;;;;;9.43;8.57;;;;;;;11.42;67.98;95504.50;5120807;28;20603;-69
2022/05/06 01:54:31;;;;;;;8.80;7.90;;;;;;;11.39;68.29;95496.09;5120162;28;20207;-69
2022/05/06 01:57:00;;;;;;;9.30;8.50;;;;;;;11.37;68.56;95498.44;5119855;28;20288;-68
2022/05/06 01:59:26;;;;;;;9.07;8.27;;;;;;;11.36;68.18;95508.66;5121246;28;20219;-69
2022/05/06 02:01:55;;;;;;;9.43;8.63;;;;;;;11.34;68.05;95513.72;5121189;28;20234;-70
2022/05/06 02:07:05;;;;;;;8.30;7.50;;;;;;;11.33;67.98;95501.06;5121939;28;20184;-69
2022/05/06 02:09:34;;;;;;;8.93;8.10;;;;;;;11.33;67.86;95506.59;5122109;28;20184;-69
2022/05/06 02:12:01;;;;;;;8.32;7.53;;;;;;;11.30;67.73;95510.06;5121151;28;20238;-69
2022/05/06 02:14:28;;;;;;;9.20;8.40;;;;;;;11.29;68.08;95517.53;5121122;28;20192;-69
2022/05/06 02:17:04;;;;;;;8.87;7.83;;;;;;;11.26;68.11;95515.47;5120694;28;20200;-69
2022/05/06 02:19:31;;;;;;;8.80;8.00;;;;;;;11.26;68.53;95523.75;5118988;28;20226;-68
2022/05/06 02:21:59;;;;;;;8.27;7.47;;;;;;;11.23;67.98;95513.38;5120457;28;20179;-69
2022/05/06 02:24:26;;;;;;;7.70;7.10;;;;;;;11.19;68.09;95514.44;5120298;28;20532;-69
2022/05/06 02:26:54;;;;;;;8.20;7.50;;;;;;;11.18;68.39;95510.03;5120433;28;20180;-69
2022/05/06 02:29:23;;;;;;;8.68;7.97;;;;;;;11.21;68.42;95523.16;5119069;28;20196;-69
2022/05/06 02:34:35;;;;;;;7.93;7.30;;;;;;;11.20;68.51;95513.28;5118657;28;20196;-70
2022/05/06 02:37:03;;;;;;;8.70;7.80;;;;;;;11.19;68.22;95519.97;5103429;28;20192;-70
2022/05/06 02:39:30;;;;;;;8.53;7.73;;;;;;;11.18;68.40;95515.56;5120433;28;20228;-70
2022/05/06 02:41:58;;;;;;;8.13;7.43;;;;;;;11.16;68.78;95517.88;5120937;28;20179;-70
2022/05/06 02:44:26;;;;;;;8.07;7.27;;;;;;;11.14;69.00;95522.94;5120442;28;20195;-70
2022/05/06 02:46:53;;;;;;;8.68;7.88;;;;;;;11.13;68.50;95513.03;5120760;28;20195;-70
2022/05/06 02:49:20;;;;;;;8.48;7.78;;;;;;;11.12;69.00;95516.97;5120030;28;20191;-70
2022/05/06 02:51:49;;;;;;;8.52;7.72;;;;;;;11.12;69.35;95514.22;5120308;28;20207;-69
2022/05/06 02:54:21;;;;;;;9.13;8.38;;;;;;;11.11;69.00;95513.41;5121166;28;20295;-69
2022/05/06 02:56:48;;;;;;;9.03;8.23;;;;;;;11.12;68.89;95514.22;5120162;28;20199;-70
2022/05/06 02:59:16;;;;;;;8.85;8.05;;;;;;;11.13;69.13;95513.03;5121361;28;20218;-69
2022/05/06 03:01:44;;;;;;;8.82;8.05;;;;;;;11.11;68.93;95515.34;5119882;28;20682;-69
2022/05/06 03:04:12;;;;;;;8.75;8.00;;;;;;;11.11;68.74;95518.09;5121360;28;20187;-69
2022/05/06 03:06:42;;;;;;;8.15;7.45;;;;;;;11.08;68.73;95511.34;5120891;28;20279;-70
2022/05/06 03:09:09;;;;;;;8.93;8.03;;;;;;;11.07;69.10;95527.09;5119638;28;20184;-70
2022/05/06 03:11:36;;;;;;;9.18;8.27;;;;;;;11.07;69.07;95518.81;5119963;28;20252;-70
2022/05/06 03:14:03;;;;;;;8.63;7.82;;;;;;;11.05;69.33;95512.81;5118574;28;20204;-70
2022/05/06 03:16:32;;;;;;;8.70;7.90;;;;;;;10.99;69.05;95519.72;5119504;28;20190;-70
2022/05/06 03:19:00;;;;;;;9.83;8.30;;;;;;;10.93;69.36;95521.09;5118678;28;20544;-70
2022/05/06 03:21:27;;;;;;;9.63;8.43;;;;;;;10.90;69.55;95521.78;5118562;28;20192;-70
2022/05/06 03:23:55;;;;;;;9.00;8.20;;;;;;;10.89;69.52;95522.91;5118672;28;20200;-71
2022/05/06 03:26:22;;;;;;;8.27;7.57;;;;;;;10.90;69.22;95524.56;5119279;28;20180;-70
2022/05/06 03:28:48;;;;;;;9.65;8.00;;;;;;;10.89;69.50;95539.47;5119883;28;20192;-70
2022/05/06 03:31:18;;;;;;;9.07;8.20;;;;;;;10.88;69.57;95534.31;5119461;28;20188;-70
2022/05/06 03:33:49;;;;;;;9.32;8.52;;;;;;;10.88;69.47;95532.34;5117727;28;20203;-70
2022/05/06 03:36:16;;;;;;;9.10;8.30;;;;;;;10.88;69.84;95542.59;5116926;28;20701;-71
2022/05/06 03:38:43;;;;;;;8.80;8.00;;;;;;;10.89;69.72;95541.44;5117346;28;20241;-70
2022/05/06 03:41:11;;;;;;;8.33;7.63;;;;;;;10.88;69.24;95545.34;5117842;28;20195;-70
2022/05/06 03:43:38;;;;;;;8.15;7.55;;;;;;;10.89;69.28;95544.19;5118911;28;20188;-70
2022/05/06 03:46:04;;;;;;;8.27;7.47;;;;;;;10.85;69.44;95550.41;5117368;28;20204;-71
2022/05/06 03:48:32;;;;;;;8.20;7.60;;;;;;;10.81;69.38;95563.25;5117464;28;20527;-70
2022/05/06 03:53:47;;;;;;;8.52;7.78;;;;;;;10.83;69.71;95560.19;5118330;28;20172;-70
2022/05/06 03:56:14;;;;;;;8.93;8.03;;;;;;;10.87;69.78;95563.06;5117247;28;20191;-69
2022/05/06 03:58:42;;;;;;;9.47;8.63;;;;;;;10.88;70.13;95565.47;5116685;28;20192;-70
2022/05/06 04:01:09;;;;;;;9.43;8.63;;;;;;;10.89;69.74;95566.28;5115839;28;20191;-71
2022/05/06 04:03:43;;;;;;;9.15;8.13;;;;;;;10.89;69.63;95561.56;5116953;28;20288;-71
2022/05/06 04:06:14;;;;;;;9.13;8.32;;;;;;;10.96;69.72;95564.56;5117302;28;20196;-71
2022/05/06 04:08:45;;;;;;;9.07;8.17;;;;;;;10.99;69.55;95569.38;5117326;28;20190;-70
2022/05/06 04:11:14;;;;;;;9.73;8.83;;;;;;;11.01;69.47;95567.09;5116022;28;20260;-70
2022/05/06 04:13:42;;;;;;;9.07;8.17;;;;;;;11.00;69.25;95571.03;5116781;28;20192;-69
2022/05/06 04:16:09;;;;;;;8.83;8.13;;;;;;;11.00;69.94;95567.44;5115692;28;20311;-71
2022/05/06 04:18:36;;;;;;;9.70;8.73;;;;;;;11.02;70.05;95567.91;5114850;28;20233;-72
2022/05/06 04:23:49;;;;;;;10.18;9.18;;;;;;;11.00;69.19;95567.44;5114846;28;20592;-70
2022/05/06 04:26:20;;;;;;;10.18;9.10;;;;;;;11.02;69.38;95576.19;5115758;28;20202;-70
2022/05/06 04:28:47;;;;;;;9.93;8.90;;;;;;;11.02;69.83;95581.72;5132778;27;20228;-70
2022/05/06 04:31:14;;;;;;;9.15;8.35;;;;;;;11.04;69.74;95579.41;5115595;28;20187;-70
2022/05/06 04:33:41;;;;;;;9.75;8.90;;;;;;;11.04;69.60;95587.69;5114742;28;20630;-71
2022/05/06 04:36:09;;;;;;;10.40;9.40;;;;;;;11.05;69.65;95587.34;5116546;28;20192;-68
2022/05/06 04:38:37;;;;;;;9.38;8.57;;;;;;;11.04;69.64;95591.25;5116015;28;20267;-70
2022/05/06 04:41:06;;;;;;;9.98;9.07;;;;;;;11.04;69.87;95585.75;5133124;28;20249;-69
2022/05/06 04:43:33;;;;;;;9.48;8.75;;;;;;;11.07;70.43;95581.47;5117002;28;20180;-69
2022/05/06 04:46:00;;;;;;;9.52;8.70;;;;;;;11.07;70.62;95579.53;5116972;28;20270;-70
2022/05/06 04:48:29;;;;;;;10.68;9.68;;;;;;;11.12;70.35;95584.03;5116965;28;20180;-69
2022/05/06 04:50:58;;;;;;;9.85;8.93;;;;;;;11.14;70.22;95589.19;5115416;28;20199;-69
2022/05/06 04:53:25;;;;;;;10.10;9.20;;;;;;;11.15;70.67;95583.34;5117410;28;20187;-71
2022/05/06 04:55:52;;;;;;;9.73;8.82;;;;;;;11.17;70.37;95586.53;5117359;28;20211;-70
2022/05/06 04:58:20;;;;;;;10.20;9.15;;;;;;;11.19;70.46;95587.03;5116519;28;20191;-70
2022/05/06 05:00:48;;;;;;;10.13;9.27;;;;;;;11.21;70.29;95590.22;5116918;28;20279;-70
2022/05/06 05:03:15;;;;;;;10.57;9.60;;;;;;;11.24;70.07;95603.34;5117172;28;20187;-70
2022/05/06 05:05:43;;;;;;;10.55;9.50;;;;;;;11.26;70.33;95605.78;5116465;28;20619;-70
2022/05/06 05:08:09;;;;;;;10.88;9.80;;;;;;;11.28;70.64;95606.22;5117185;28;20184;-70
2022/05/06 05:10:38;;;;;;;10.63;9.73;;;;;;;11.30;70.45;95613.03;5116168;28;20291;-71
2022/05/06 05:13:05;;;;;;;11.05;9.93;;;;;;;11.32;70.18;95621.75;5116805;28;20200;-70
2022/05/06 05:15:34;;;;;;;10.60;9.60;;;;;;;11.40;70.47;95608.19;5116845;28;20245;-70
2022/05/06 05:18:01;;;;;;;10.80;9.70;;;;;;;11.44;70.33;95609.13;5116882;28;20267;-70
2022/05/06 05:20:28;;;;;;;10.55;9.65;;;;;;;11.47;70.58;95603.69;5115738;28;20310;-70
2022/05/06 05:22:55;;;;;;;10.75;9.75;;;;;;;11.47;70.25;95611.19;5116605;28;20286;-70
2022/05/06 05:25:24;;;;;;;11.50;10.50;;;;;;;11.47;70.39;95606.44;5117862;28;20180;-70
2022/05/06 05:27:51;;;;;;;12.15;10.95;;;;;;;11.47;70.75;95616.69;5121145;27;20195;-72
2022/05/06 05:30:18;;;;;;;10.70;9.65;;;;;;;11.48;70.66;95613.59;5121172;28;20176;-70
2022/05/06 05:32:47;;;;;;;10.70;9.73;;;;;;;11.49;70.66;95608.88;5120867;28;20526;-69
2022/05/06 05:35:13;;;;;;;11.27;10.13;;;;;;;11.53;70.77;95609.81;5120708;28;20199;-69
2022/05/06 05:37:40;;;;;;;11.20;10.13;;;;;;;11.55;70.64;95608.31;5120092;28;20176;-69
2022/05/06 05:40:10;;;;;;;10.65;9.75;;;;;;;11.60;70.86;95612.00;5119501;28;20306;-69
2022/05/06 05:42:37;;;;;;;11.20;10.10;;;;;;;11.61;70.38;95611.63;5118861;28;20207;-69
2022/05/06 05:50:49;;;;;;;10.68;9.70;;;;;;;11.74;70.06;95601.38;5077733;28;20181;-68
2022/05/06 05:53:16;;;;;;;11.68;10.55;;;;;;;11.76;69.93;95599.06;5104897;28;20200;-68
2022/05/06 05:55:43;;;;;;;13.20;9.68;;;;;;;11.80;70.21;95591.69;5120221;28;20180;-68
2022/05/06 05:58:10;;;;;;;11.27;10.27;;;;;;;11.86;69.93;95595.88;5120683;28;20195;-68
2022/05/06 06:00:38;;;;;;;10.80;9.73;;;;;;;11.91;69.21;95601.16;5119431;28;20306;-68
2022/05/06 06:03:06;;;;;;;11.45;10.35;;;;;;;11.98;69.46;95595.84;5120368;28;20716;-69
2022/05/06 06:05:33;;;;;;;11.20;10.10;;;;;;;12.00;68.53;95590.75;5120502;28;20195;-71
2022/05/06 06:08:00;;;;;;;13.60;11.30;;;;;;;12.04;68.99;95602.72;5122485;28;20268;-69
2022/05/06 06:10:28;;;;;;;11.85;10.65;;;;;;;12.08;68.81;95596.50;5140120;27;20219;-70
2022/05/06 06:12:57;;;;;;;12.35;11.18;;;;;;;12.14;69.03;95595.13;5123723;28;20184;-70
2022/05/06 06:15:25;;;;;;;12.20;11.02;;;;;;;12.23;68.43;95593.81;5121091;28;20196;-70
2022/05/06 06:17:56;;;;;;;11.38;10.23;;;;;;;12.29;67.55;95591.59;5121565;28;20525;-70
2022/05/06 06:20:26;;;;;;;13.00;11.80;;;;;;;12.34;67.76;95598.84;5122828;28;20238;-70
2022/05/06 06:22:55;;;;;;;12.32;11.23;;;;;;;12.40;67.69;95597.44;5123703;28;20268;-72
2022/05/06 06:25:28;;;;;;;11.43;10.32;;;;;;;12.40;67.13;95601.00;5124038;28;20199;-70
2022/05/06 06:27:58;;;;;;;10.48;9.48;;;;;;;12.42;66.76;95604.25;5123317;28;20260;-71
2022/05/06 06:30:30;;;;;;;11.40;10.40;;;;;;;12.44;66.05;95603.88;5121492;28;20200;-70
2022/05/06 06:33:03;;;;;;;11.50;10.50;;;;;;;12.44;66.01;95590.84;5126405;28;20180;-70
2022/05/06 06:35:36;;;;;;;12.50;11.20;;;;;;;12.49;66.54;95590.63;5126476;28;20199;-71
2022/05/06 06:38:03;;;;;;;12.30;11.05;;;;;;;12.53;66.71;95590.72;5124070;28;20253;-70
2022/05/06 06:40:32;;;;;;;12.05;10.95;;;;;;;12.59;66.97;95592.06;5123248;28;20224;-70
2022/05/06 06:43:02;;;;;;;13.00;11.63;;;;;;;12.64;66.58;95589.03;5122190;28;20242;-71
2022/05/06 06:45:28;;;;;;;11.32;10.32;;;;;;;12.69;66.73;95590.75;5122492;28;20240;-71
2022/05/06 06:47:55;;;;;;;12.77;11.38;;;;;;;12.73;66.26;95586.09;5122592;28;20192;-71
2022/05/06 06:50:26;;;;;;;14.15;11.23;;;;;;;12.79;66.40;95593.00;5121861;28;20266;-71
2022/05/06 06:52:56;;;;;;;13.73;11.30;;;;;;;12.83;66.38;95599.44;5120728;28;20196;-71
2022/05/06 06:55:23;;;;;;;11.40;10.30;;;;;;;12.83;65.00;95596.66;5138233;27;20188;-71
2022/05/06 06:57:50;;;;;;;12.60;10.60;;;;;;;12.83;64.56;95593.09;5120596;28;20176;-71
2022/05/06 07:00:18;;;;;;;12.00;10.82;;;;;;;12.86;64.84;95590.44;5120904;28;20638;-71
2022/05/06 07:02:45;;;;;;;12.27;10.90;;;;;;;12.95;65.41;95585.50;5120180;28;20215;-71
2022/05/06 07:05:12;;;;;;;12.48;11.07;;;;;;;12.99;64.97;95593.91;5119136;28;20191;-71
2022/05/06 07:13:11;;;;;;;12.50;11.30;;;;;;;13.06;64.08;95587.75;5121140;28;20172;-71
2022/05/06 07:15:39;;;;;;;11.73;10.52;;;;;;;13.13;65.08;95587.94;5119587;28;20211;-71
2022/05/06 07:18:06;;;;;;;11.35;10.25;;;;;;;13.18;64.00;95587.66;5121834;28;20211;-71
2022/05/06 07:20:33;;;;;;;11.40;9.77;;;;;;;13.24;64.09;95586.28;5121692;28;20208;-71
2022/05/06 07:23:00;;;;;;;11.90;10.18;;;;;;;13.28;62.04;95584.41;5138109;27;20226;-71
2022/05/06 07:25:29;;;;;;;10.23;9.23;;;;;;;13.31;62.51;95589.22;5121763;28;20184;-71
2022/05/06 07:27:59;;;;;;;9.45;8.55;;;;;;;13.38;62.99;95588.59;5120868;28;20187;-70
2022/05/06 07:30:27;;;;;;;10.18;9.27;;;;;;;13.42;62.14;95584.75;5120802;28;20200;-71
2022/05/06 07:32:54;;;;;;;11.13;9.70;;;;;;;13.48;62.26;95576.97;5103826;28;20210;-71
2022/05/06 07:35:21;;;;;;;8.80;7.95;;;;;;;13.53;61.28;95579.47;5120523;28;20283;-71
2022/05/06 07:37:48;;;;;;;8.57;7.88;;;;;;;13.56;61.06;95584.31;5136788;27;20225;-69
2022/05/06 07:40:15;;;;;;;8.27;7.47;;;;;;;13.58;60.87;95579.22;5119606;28;20215;-69
2022/05/06 07:42:45;;;;;;;8.20;7.40;;;;;;;13.65;61.15;95581.31;5118356;28;20200;-69
2022/05/06 07:45:12;;;;;;;7.40;6.70;;;;;;;13.75;61.43;95579.97;5118585;28;20219;-68
2022/05/06 07:47:39;;;;;;;7.18;6.53;;;;;;;13.81;61.58;95581.31;5117824;28;20179;-72
2022/05/06 07:50:08;;;;;;;8.18;7.43;;;;;;;13.89;61.69;95575.56;5118514;28;20290;-70
2022/05/06 07:52:37;;;;;;;8.75;7.35;;;;;;;13.99;61.32;95578.94;5117492;28;20198;-70
2022/05/06 07:55:04;;;;;;;7.80;7.10;;;;;;;14.06;61.11;95579.91;5117534;28;20527;-70
2022/05/06 07:57:31;;;;;;;8.88;7.10;;;;;;;14.13;60.81;95577.28;5117731;28;20274;-69
2022/05/06 08:00:05;;;;;;;7.50;6.55;;;;;;;14.25;59.64;95576.34;5116556;28;20187;-70
2022/05/06 08:05:17;;;;;;;7.88;6.40;;;;;;;14.45;59.80;95572.41;5116370;28;20608;-64
2022/05/06 08:07:44;;;;;;;6.80;6.30;;;;;;;14.52;59.62;95565.41;5115175;28;20203;-64
2022/05/06 08:10:11;;;;;;;6.90;6.20;;;;;;;14.61;59.67;95569.56;5115129;28;20192;-65
2022/05/06 08:12:43;;;;;;;9.20;8.30;;;;;;;14.64;59.79;95568.03;5116033;28;20584;-65
2022/05/06 08:15:12;;;;;;;7.75;7.10;;;;;;;14.73;59.38;95571.38;5115881;28;20207;-69
2022/05/06 08:17:39;;;;;;;6.68;6.07;;;;;;;14.77;59.70;95565.88;5133992;27;20388;-69
2022/05/06 08:20:08;;;;;;;7.78;7.10;;;;;;;14.80;58.32;95562.38;5116623;28;20230;-69
2022/05/06 08:22:36;;;;;;;7.32;6.47;;;;;;;14.80;59.37;95562.38;5116549;28;20219;-70
2022/05/06 08:25:03;;;;;;;7.43;6.72;;;;;;;14.82;58.86;95562.84;5116965;28;20175;-69
2022/05/06 08:27:30;;;;;;;7.00;6.32;;;;;;;14.93;58.94;95561.84;5116857;28;20187;-69
2022/05/06 08:29:57;;;;;;;12.35;11.02;;;;;;;15.00;58.69;95557.59;5117009;28;20214;-69
2022/05/06 08:32:25;;;;;;;8.40;7.70;;;;;;;15.01;58.12;95565.56;5133706;27;20622;-69
2022/05/06 08:34:53;;;;;;;7.80;7.10;;;;;;;15.08;58.94;95559.34;5117573;28;20294;-70
2022/05/06 08:37:21;;;;;;;8.30;6.97;;;;;;;15.17;59.66;95565.44;5116936;28;20196;-69
2022/05/06 08:39:48;;;;;;;6.90;6.30;;;;;;;15.26;60.16;95560.44;5116765;28;20235;-69
2022/05/06 08:42:17;;;;;;;8.38;7.47;;;;;;;15.39;60.26;95556.28;5117324;28;20643;-69
2022/05/06 08:53:09;;;;;;;6.85;6.22;;;;;;;15.73;57.31;95548.13;5116528;28;20188;-70
2022/05/06 08:55:36;;;;;;;7.75;7.15;;;;;;;15.78;57.84;95555.31;5117757;28;20243;-70
2022/05/06 08:58:02;;;;;;;8.23;7.43;;;;;;;15.84;56.61;95551.84;5116854;28;20184;-70
2022/05/06 09:00:30;;;;;;;8.57;7.15;;;;;;;15.92;57.31;95549.16;5118060;28;20212;-70
2022/05/06 09:02:58;;;;;;;7.13;6.28;;;;;;;16.03;57.82;95550.91;5120543;28;20207;-69
2022/05/06 09:05:25;;;;;;;6.20;5.70;;;;;;;16.08;56.33;95547.78;5120750;28;20206;-70
2022/05/06 09:07:56;;;;;;;6.28;5.75;;;;;;;16.10;56.35;95548.22;5121030;28;20211;-69
2022/05/06 09:10:23;;;;;;;8.45;5.78;;;;;;;16.21;57.48;95550.38;5120172;28;20253;-69
2022/05/06 09:12:55;;;;;;;6.00;5.53;;;;;;;16.29;56.78;95550.06;5121460;28;20187;-70
2022/05/06 09:18:09;;;;;;;6.43;5.78;;;;;;;16.40;56.56;95536.28;5120002;28;20188;-69
2022/05/06 09:20:37;;;;;;;6.70;5.82;;;;;;;16.35;54.75;95531.06;5121124;28;20207;-69
2022/05/06 09:23:24;;;;;;;6.18;5.68;;;;;;;16.36;56.69;95533.47;5120275;28;20303;-69
2022/05/06 09:25:52;;;;;;;6.75;6.15;;;;;;;16.42;56.27;95530.34;5120822;28;20199;-69
2022/05/06 09:28:25;;;;;;;6.43;5.70;;;;;;;16.43;54.38;95527.19;5119798;28;20196;-69
2022/05/06 09:31:02;;;;;;;6.25;5.68;;;;;;;16.36;53.53;95519.53;5119374;28;20412;-66
2022/05/06 09:33:31;;;;;;;6.55;6.05;;;;;;;16.37;53.73;95511.97;5120727;28;20172;-68
2022/05/06 09:35:58;;;;;;;7.28;6.57;;;;;;;16.40;54.62;95511.22;5121402;28;20190;-67
2022/05/06 09:38:29;;;;;;;6.82;6.22;;;;;;;16.43;53.13;95513.25;5118991;28;20235;-67
2022/05/06 09:40:56;;;;;;;6.53;5.93;;;;;;;16.46;54.11;95508.91;5119332;28;20208;-67
2022/05/06 09:43:23;;;;;;;6.25;5.75;;;;;;;16.54;52.34;95508.63;5119675;28;20190;-67
2022/05/06 09:45:50;;;;;;;6.40;5.90;;;;;;;16.61;52.55;95508.69;5119037;28;20184;-67
2022/05/06 09:48:17;;;;;;;6.70;6.10;;;;;;;16.70;53.42;95511.16;5119259;28;20198;-66
2022/05/06 09:50:47;;;;;;;6.43;5.80;;;;;;;16.80;53.56;95513.28;5118692;28;20192;-66
2022/05/06 09:53:15;;;;;;;6.20;5.60;;;;;;;16.82;52.40;95507.34;5119378;28;20184;-67
2022/05/06 09:55:44;;;;;;;6.25;5.75;;;;;;;16.81;52.19;95503.78;5118552;28;20294;-67
2022/05/06 09:58:11;;;;;;;6.13;5.63;;;;;;;16.81;51.13;95500.16;5117713;28;20203;-67
2022/05/06 10:00:39;;;;;;;6.20;5.65;;;;;;;16.84;52.22;95514.13;5118873;28;20334;-67
2022/05/06 10:03:06;;;;;;;6.60;6.00;;;;;;;16.85;51.95;95503.81;5118332;28;20200;-67
2022/05/06 10:05:35;;;;;;;6.38;5.78;;;;;;;16.89;52.39;95501.06;5119404;28;20230;-66
2022/05/06 10:08:06;;;;;;;6.72;6.13;;;;;;;16.93;50.80;95490.75;5119490;28;20191;-66
2022/05/06 10:10:38;;;;;;;6.15;5.60;;;;;;;16.91;51.02;95496.69;5118407;28;20227;-67
2022/05/06 10:13:08;;;;;;;6.00;5.50;;;;;;;16.88;50.14;95496.66;5119318;28;20198;-67
2022/05/06 10:15:35;;;;;;;6.63;6.03;;;;;;;16.92;49.98;95492.72;5118337;28;20278;-68
2022/05/06 10:18:03;;;;;;;6.07;5.57;;;;;;;16.99;50.41;95494.75;5118524;28;20192;-67
2022/05/06 10:20:51;;;;;;;5.78;5.28;;;;;;;17.06;49.43;95495.63;5119024;28;20199;-67
2022/05/06 10:23:23;;;;;;;5.70;5.30;;;;;;;17.09;50.33;95496.84;5118034;28;20204;-66
2022/05/06 10:26:00;;;;;;;5.93;5.38;;;;;;;17.15;49.35;95492.53;5119185;27;20188;-67
2022/05/06 10:34:30;;;;;;;6.13;5.50;;;;;;;17.40;49.25;95491.94;5118038;28;20603;-66
2022/05/06 10:37:00;;;;;;;5.53;5.03;;;;;;;17.40;48.91;95480.78;5117722;28;20293;-66
2022/05/06 10:39:30;;;;;;;6.05;5.25;;;;;;;17.41;47.96;95468.44;5118362;28;20236;-66
2022/05/06 10:42:06;;;;;;;6.43;5.82;;;;;;;17.44;48.57;95476.84;5117141;28;20525;-66
2022/05/06 10:44:36;;;;;;;6.88;5.20;;;;;;;17.56;47.81;95482.09;5117784;28;20188;-66
2022/05/06 10:47:04;;;;;;;5.53;5.13;;;;;;;17.61;47.08;95467.00;5117688;28;20191;-66
2022/05/06 10:49:52;;;;;;;7.10;5.32;;;;;;;17.63;46.61;95466.59;5117432;28;20225;-67
2022/05/06 10:52:57;;;;;;;6.90;5.47;;;;;;;17.74;48.00;95467.47;5083767;28;20226;-66
2022/05/06 10:55:43;;;;;;;5.40;5.00;;;;;;;17.80;48.32;95466.72;5118164;28;20184;-66
2022/05/06 10:58:11;;;;;;;5.72;5.30;;;;;;;17.75;45.70;95469.88;5117701;27;20248;-66
2022/05/06 11:00:42;;;;;;;5.68;5.18;;;;;;;17.70;45.37;95461.84;5117755;28;20592;-66
2022/05/06 11:03:10;;;;;;;6.30;5.70;;;;;;;17.70;45.67;95467.44;5117799;28;20196;-66
2022/05/06 11:05:38;;;;;;;5.18;4.78;;;;;;;17.74;46.82;95464.66;5119153;28;20256;-70
2022/05/06 11:08:09;;;;;;;5.80;5.30;;;;;;;17.86;47.68;95455.19;5116190;28;20203;-67
2022/05/06 11:10:40;;;;;;;5.20;4.80;;;;;;;17.92;45.91;95454.44;5116482;28;20192;-66
2022/05/06 11:13:10;;;;;;;5.20;4.80;;;;;;;17.93;45.59;95452.44;5116381;28;20196;-66
2022/05/06 11:15:38;;;;;;;5.57;5.18;;;;;;;17.95;44.80;95444.50;5115894;28;20665;-66
2022/05/06 11:18:07;;;;;;;5.10;4.70;;;;;;;17.92;44.82;95443.28;5116447;28;20196;-66
2022/05/06 11:20:35;;;;;;;5.18;4.78;;;;;;;18.02;45.23;95442.53;5118160;28;20200;-66
2022/05/06 11:23:04;;;;;;;5.13;4.72;;;;;;;18.10;45.34;95446.16;5118231;28;20223;-66
2022/05/06 11:25:33;;;;;;;5.10;4.70;;;;;;;18.13;43.52;95433.41;5116960;28;20180;-66
2022/05/06 11:28:04;;;;;;;5.43;4.97;;;;;;;18.10;44.69;95434.19;5116344;28;20196;-66
2022/05/06 11:30:32;;;;;;;5.18;4.78;;;;;;;18.07;44.26;95423.81;5115614;28;20619;-66
2022/05/06 11:33:03;;;;;;;6.38;5.45;;;;;;;18.04;44.89;95426.16;5116363;28;20256;-66
2022/05/06 11:35:42;;;;;;;5.93;5.32;;;;;;;18.01;43.47;95426.97;5116203;28;20222;-66
2022/05/06 11:38:08;;;;;;;4.85;4.45;;;;;;;18.05;43.95;95424.19;5117011;28;20227;-66
2022/05/06 11:40:37;;;;;;;5.00;4.60;;;;;;;18.16;43.57;95425.03;5116887;28;20527;-66
2022/05/06 11:43:19;;;;;;;5.65;4.50;;;;;;;18.28;43.69;95418.28;5116395;28;20228;-66
2022/05/06 11:48:32;;;;;;;4.50;3.80;;;;;;;18.38;41.45;95417.53;5117300;28;20171;-66
2022/05/06 11:51:03;;;;;;;4.30;3.90;;;;;;;18.41;42.80;95415.91;5116866;28;20199;-66
2022/05/06 11:53:30;;;;;;;4.07;3.78;;;;;;;18.40;41.05;95419.91;5117477;28;20184;-66
2022/05/06 11:55:57;;;;;;;4.65;3.80;;;;;;;18.36;40.63;95419.91;5116376;28;20195;-66
2022/05/06 11:58:26;;;;;;;4.47;4.07;;;;;;;18.31;40.24;95414.72;5117315;28;20191;-67
2022/05/06 12:00:54;;;;;;;4.25;3.92;;;;;;;18.42;40.06;95406.38;5116037;28;20205;-67
2022/05/06 12:03:22;;;;;;;4.75;3.78;;;;;;;18.58;40.06;95408.78;5116635;28;20249;-66
2022/05/06 12:06:05;;;;;;;4.00;3.67;;;;;;;18.74;40.11;95406.47;5115902;28;20202;-66
2022/05/06 12:08:33;;;;;;;3.90;3.50;;;;;;;18.82;39.98;95410.06;5115979;28;20195;-67
2022/05/06 12:11:02;;;;;;;4.03;3.72;;;;;;;19.09;41.73;95402.06;5115967;28;20558;-67
2022/05/06 12:13:40;;;;;;;4.18;3.88;;;;;;;19.23;39.26;95397.25;5116665;28;20199;-67
2022/05/06 12:16:12;;;;;;;4.00;3.70;;;;;;;19.33;39.87;95398.44;5115982;28;20206;-67
2022/05/06 12:18:53;;;;;;;4.38;3.85;;;;;;;19.35;39.64;95387.66;5116941;28;20176;-67
2022/05/06 12:21:22;;;;;;;5.00;4.50;;;;;;;19.41;39.22;95374.84;5117414;28;20215;-67
2022/05/06 12:23:53;;;;;;;3.72;3.42;;;;;;;19.45;39.72;95380.44;5116309;28;20200;-67
2022/05/06 12:26:32;;;;;;;5.03;3.95;;;;;;;19.57;39.40;95368.03;5116072;28;20268;-67
2022/05/06 12:29:00;;;;;;;4.32;3.92;;;;;;;19.73;38.66;95368.41;5115884;28;20195;-67
2022/05/06 12:31:29;;;;;;;4.00;3.70;;;;;;;19.84;39.36;95368.38;5116829;28;20199;-67
2022/05/06 12:34:04;;;;;;;4.10;3.70;;;;;;;19.94;40.35;95368.34;5116626;28;20261;-67
2022/05/06 12:36:32;;;;;;;4.60;4.20;;;;;;;19.99;38.97;95357.91;5115768;28;20193;-67
2022/05/06 12:38:59;;;;;;;3.80;3.55;;;;;;;19.96;38.30;95354.72;5116459;28;20219;-67